createdAt,value
2018-11-26T00:01:32.119Z,90.00
2018-11-26T00:03:10.662Z,89.40
2018-11-26T00:04:45.143Z,89.20
2018-11-26T00:06:19.624Z,89.60
2018-11-26T00:07:54.211Z,89.90
2018-11-26T00:09:28.795Z,90.00
2018-11-26T00:11:45.226Z,90.10
2018-11-26T00:13:19.747Z,90.10
2018-11-26T00:14:54.191Z,90.00
2018-11-26T00:16:28.655Z,90.00
2018-11-26T00:18:03.213Z,90.10
2018-11-26T00:19:37.690Z,90.20
2018-11-26T00:21:12.232Z,90.00
2018-11-26T00:22:46.619Z,90.30
2018-11-26T00:24:21.136Z,89.80
2018-11-26T00:25:55.622Z,89.70
2018-11-26T00:27:30.254Z,88.90
2018-11-26T00:29:04.761Z,89.30
2018-11-26T00:30:39.372Z,89.90
2018-11-26T00:32:13.920Z,89.90
2018-11-26T00:33:48.412Z,90.10
2018-11-26T00:35:22.941Z,90.40
2018-11-26T00:36:57.432Z,90.60
2018-11-26T00:38:31.935Z,90.60
2018-11-26T00:40:08.209Z,90.70
2018-11-26T00:41:42.798Z,90.80
2018-11-26T00:43:17.303Z,90.90
2018-11-26T00:44:51.896Z,91.20
2018-11-26T00:46:26.433Z,90.80
2018-11-26T00:48:01.061Z,90.30
2018-11-26T00:49:35.529Z,89.90
2018-11-26T00:51:10.197Z,89.90
2018-11-26T00:52:44.643Z,90.10
2018-11-26T00:54:19.159Z,90.30
2018-11-26T00:55:53.626Z,90.30
2018-11-26T00:57:28.225Z,90.90
2018-11-26T00:59:02.716Z,90.70
2018-11-26T01:00:37.275Z,90.60
2018-11-26T01:02:12.421Z,90.70
2018-11-26T01:03:47.139Z,90.50
2018-11-26T01:05:31.890Z,90.60
2018-11-26T01:07:07.019Z,90.70
2018-11-26T01:08:41.782Z,90.70
2018-11-26T01:10:16.484Z,90.80
2018-11-26T01:11:51.191Z,90.90
2018-11-26T01:13:25.847Z,90.80
2018-11-26T01:15:00.581Z,90.70
2018-11-26T01:16:35.107Z,90.70
2018-11-26T01:18:09.881Z,90.50
2018-11-26T01:19:45.858Z,90.60
2018-11-26T01:21:20.692Z,90.50
2018-11-26T01:22:55.511Z,90.70
2018-11-26T01:24:30.220Z,90.70
2018-11-26T01:26:05.069Z,90.50
2018-11-26T01:27:39.928Z,90.50
2018-11-26T01:29:14.696Z,90.40
2018-11-26T01:30:49.430Z,90.40
2018-11-26T01:32:25.012Z,90.40
2018-11-26T01:34:00.057Z,90.40
2018-11-26T01:35:35.096Z,90.30
2018-11-26T01:37:10.215Z,90.00
2018-11-26T01:38:45.353Z,90.10
2018-11-26T01:40:24.206Z,90.10
2018-11-26T01:41:59.106Z,90.20
2018-11-26T01:43:33.919Z,90.20
2018-11-26T01:45:08.831Z,90.10
2018-11-26T01:46:43.812Z,90.20
2018-11-26T01:48:18.482Z,90.10
2018-11-26T01:49:53.228Z,90.40
2018-11-26T01:51:28.207Z,90.30
2018-11-26T01:53:02.827Z,90.30
2018-11-26T01:54:37.457Z,90.50
2018-11-26T01:56:12.181Z,90.50
2018-11-26T01:57:46.828Z,90.60
2018-11-26T01:59:21.396Z,90.60
2018-11-26T02:00:55.967Z,90.20
2018-11-26T02:02:30.482Z,89.80
2018-11-26T02:04:04.998Z,90.00
2018-11-26T02:05:39.649Z,90.10
2018-11-26T02:07:14.329Z,90.10
2018-11-26T02:08:48.995Z,90.20
2018-11-26T02:10:23.521Z,90.20
2018-11-26T02:11:58.096Z,90.30
2018-11-26T02:13:32.742Z,90.20
2018-11-26T02:15:19.005Z,90.60
2018-11-26T02:16:53.669Z,90.30
2018-11-26T02:18:28.375Z,90.20
2018-11-26T02:20:03.079Z,90.10
2018-11-26T02:21:37.761Z,89.80
2018-11-26T02:23:12.559Z,90.00
2018-11-26T02:24:47.465Z,90.00
2018-11-26T02:26:21.612Z,90.30
2018-11-26T02:27:55.715Z,90.10
2018-11-26T02:29:29.809Z,90.00
2018-11-26T02:31:03.977Z,90.30
2018-11-26T02:32:38.139Z,89.60
2018-11-26T02:34:12.315Z,89.80
2018-11-26T02:35:46.497Z,89.30
2018-11-26T02:37:20.647Z,89.50
2018-11-26T02:38:54.765Z,89.60
2018-11-26T02:40:30.956Z,90.00
2018-11-26T02:42:05.106Z,90.00
2018-11-26T02:43:39.236Z,89.80
2018-11-26T02:45:13.372Z,89.30
2018-11-26T02:46:47.428Z,89.40
2018-11-26T02:48:21.898Z,89.70
2018-11-26T02:49:56.078Z,90.00
2018-11-26T02:51:30.192Z,89.80
2018-11-26T02:53:04.282Z,90.00
2018-11-26T02:54:38.386Z,90.10
2018-11-26T02:56:12.419Z,89.80
2018-11-26T02:57:46.486Z,90.00
2018-11-26T02:59:20.485Z,90.20
2018-11-26T03:00:54.559Z,90.20
2018-11-26T03:02:28.663Z,90.60
2018-11-26T03:04:02.769Z,90.10
2018-11-26T03:05:36.842Z,90.10
2018-11-26T03:07:10.909Z,90.20
2018-11-26T03:08:45.027Z,90.60
2018-11-26T03:10:19.065Z,90.00
2018-11-26T03:11:53.103Z,90.00
2018-11-26T03:13:27.243Z,90.00
2018-11-26T03:15:01.238Z,90.10
2018-11-26T03:16:35.300Z,90.10
2018-11-26T03:18:09.330Z,90.20
2018-11-26T03:19:43.418Z,90.20
2018-11-26T03:21:17.477Z,90.10
2018-11-26T03:22:51.453Z,90.00
2018-11-26T03:24:25.429Z,90.10
2018-11-26T03:25:59.464Z,90.10
2018-11-26T03:27:33.467Z,90.10
2018-11-26T03:29:07.429Z,90.00
2018-11-26T03:30:41.531Z,90.10
2018-11-26T03:32:15.514Z,90.30
2018-11-26T03:33:49.552Z,90.20
2018-11-26T03:35:23.550Z,89.80
2018-11-26T03:36:57.661Z,90.10
2018-11-26T03:38:49.181Z,90.00
2018-11-26T03:40:23.240Z,89.90
2018-11-26T03:41:57.374Z,90.00
2018-11-26T03:43:31.463Z,90.10
2018-11-26T03:45:07.712Z,90.10
2018-11-26T03:46:41.733Z,89.90
2018-11-26T03:48:15.821Z,89.50
2018-11-26T03:49:50.115Z,90.00
2018-11-26T03:51:24.273Z,90.30
2018-11-26T03:52:58.272Z,89.90
2018-11-26T03:54:32.371Z,89.90
2018-11-26T03:56:07.267Z,89.40
2018-11-26T03:57:41.405Z,89.60
2018-11-26T03:59:15.410Z,90.00
2018-11-26T04:00:53.237Z,90.00
2018-11-26T04:02:27.230Z,90.00
2018-11-26T04:04:01.341Z,90.00
2018-11-26T04:05:35.361Z,90.00
2018-11-26T04:07:09.362Z,90.00
2018-11-26T04:08:43.399Z,90.00
2018-11-26T04:10:17.554Z,90.00
2018-11-26T04:11:51.609Z,90.10
2018-11-26T04:13:25.740Z,90.50
2018-11-26T04:14:59.907Z,90.20
2018-11-26T04:16:34.157Z,90.10
2018-11-26T04:18:08.446Z,90.20
2018-11-26T04:19:43.378Z,90.00
2018-11-26T04:21:17.432Z,89.70
2018-11-26T04:22:51.520Z,89.70
2018-11-26T04:24:28.341Z,89.90
2018-11-26T04:26:02.335Z,90.10
2018-11-26T04:27:36.364Z,90.00
2018-11-26T04:29:10.448Z,90.00
2018-11-26T04:30:44.453Z,89.70
2018-11-26T04:32:18.437Z,89.70
2018-11-26T04:33:52.623Z,89.90
2018-11-26T04:35:26.680Z,90.00
2018-11-26T04:37:00.660Z,89.70
2018-11-26T04:38:34.659Z,89.60
2018-11-26T04:40:09.996Z,89.60
2018-11-26T04:41:44.068Z,89.40
2018-11-26T04:43:18.057Z,89.90
2018-11-26T04:44:52.018Z,90.00
2018-11-26T04:46:26.040Z,90.00
2018-11-26T04:48:00.161Z,89.90
2018-11-26T04:49:34.141Z,90.00
2018-11-26T04:51:08.204Z,89.90
2018-11-26T04:52:42.242Z,90.10
2018-11-26T04:54:16.286Z,90.10
2018-11-26T04:55:50.381Z,90.10
2018-11-26T04:57:24.367Z,90.20
2018-11-26T04:58:58.377Z,90.30
2018-11-26T05:00:32.442Z,90.30
2018-11-26T05:02:06.485Z,90.20
2018-11-26T05:03:41.280Z,90.30
2018-11-26T05:05:15.251Z,90.20
2018-11-26T05:06:49.430Z,90.10
2018-11-26T05:08:23.408Z,89.90
2018-11-26T05:09:57.381Z,89.90
2018-11-26T05:11:31.393Z,90.00
2018-11-26T05:13:05.471Z,90.10
2018-11-26T05:14:39.428Z,90.20
2018-11-26T05:16:14.466Z,90.60
2018-11-26T05:17:47.596Z,90.30
2018-11-26T05:19:21.717Z,90.30
2018-11-26T05:20:55.707Z,90.50
2018-11-26T05:22:29.796Z,90.40
2018-11-26T05:24:03.792Z,90.50
2018-11-26T05:25:37.886Z,90.70
2018-11-26T05:27:11.904Z,90.70
2018-11-26T05:28:45.918Z,90.90
2018-11-26T05:30:19.922Z,90.90
2018-11-26T05:31:54.000Z,90.80
2018-11-26T05:33:28.000Z,90.90
2018-11-26T05:35:02.054Z,91.00
2018-11-26T05:36:36.087Z,90.90
2018-11-26T05:38:10.226Z,90.90
2018-11-26T05:39:44.230Z,90.80
2018-11-26T05:41:18.181Z,90.80
2018-11-26T05:42:52.162Z,90.80
2018-11-26T05:44:26.234Z,90.80
2018-11-26T05:46:00.226Z,90.80
2018-11-26T05:47:34.282Z,90.80
2018-11-26T05:49:08.385Z,90.80
2018-11-26T05:50:42.439Z,90.90
2018-11-26T05:52:16.502Z,90.90
2018-11-26T05:53:50.561Z,91.20
2018-11-26T05:55:24.583Z,91.10
2018-11-26T05:56:58.612Z,90.90
2018-11-26T05:58:32.719Z,90.90
2018-11-26T06:00:11.229Z,90.90
2018-11-26T06:01:45.275Z,90.90
2018-11-26T06:03:19.377Z,90.90
2018-11-26T06:04:53.376Z,90.90
2018-11-26T06:06:27.377Z,91.00
2018-11-26T06:08:01.393Z,91.10
2018-11-26T06:09:35.446Z,91.10
2018-11-26T06:11:09.462Z,91.10
2018-11-26T06:12:43.525Z,91.20
2018-11-26T06:14:17.571Z,91.40
2018-11-26T06:15:51.634Z,91.50
2018-11-26T06:17:25.677Z,91.50
2018-11-26T06:18:59.665Z,91.60
2018-11-26T06:20:33.673Z,91.30
2018-11-26T06:22:07.778Z,91.30
2018-11-26T06:23:41.765Z,91.40
2018-11-26T06:25:17.112Z,91.30
2018-11-26T06:26:51.985Z,91.30
2018-11-26T06:28:25.343Z,91.20
2018-11-26T06:29:59.361Z,91.40
2018-11-26T06:31:33.370Z,91.70
2018-11-26T06:33:07.433Z,91.50
2018-11-26T06:34:42.543Z,91.60
2018-11-26T06:36:15.643Z,91.60
2018-11-26T06:37:49.653Z,91.70
2018-11-26T06:39:23.624Z,91.60
2018-11-26T06:40:57.709Z,91.60
2018-11-26T06:42:31.725Z,91.70
2018-11-26T06:44:06.974Z,91.70
2018-11-26T06:45:41.117Z,91.60
2018-11-26T06:47:15.169Z,91.30
2018-11-26T06:48:49.214Z,91.60
2018-11-26T06:50:25.837Z,91.50
2018-11-26T06:52:19.989Z,91.80
2018-11-26T06:53:54.294Z,91.60
2018-11-26T06:55:28.339Z,91.70
2018-11-26T06:57:02.400Z,91.50
2018-11-26T06:58:44.909Z,91.30
2018-11-26T07:00:19.938Z,91.20
2018-11-26T07:01:53.930Z,91.10
2018-11-26T07:03:27.968Z,91.20
2018-11-26T07:05:02.043Z,91.20
2018-11-26T07:06:36.061Z,91.20
2018-11-26T07:08:10.097Z,91.00
2018-11-26T07:09:44.050Z,91.00
2018-11-26T07:11:18.115Z,91.10
2018-11-26T07:12:53.911Z,91.10
2018-11-26T07:14:27.907Z,90.90
2018-11-26T07:16:01.926Z,90.80
2018-11-26T07:17:36.029Z,90.90
2018-11-26T07:19:10.061Z,90.90
2018-11-26T07:20:44.139Z,90.90
2018-11-26T07:22:18.163Z,90.90
2018-11-26T07:23:52.262Z,90.80
2018-11-26T07:25:26.338Z,90.80
2018-11-26T07:27:00.333Z,90.80
2018-11-26T07:28:34.345Z,91.30
2018-11-26T07:30:14.330Z,90.90
2018-11-26T07:31:48.396Z,90.80
2018-11-26T07:33:22.423Z,90.70
2018-11-26T07:34:56.447Z,90.70
2018-11-26T07:36:30.489Z,90.90
2018-11-26T07:38:04.569Z,90.90
2018-11-26T07:39:38.622Z,90.90
2018-11-26T07:41:12.665Z,91.00
2018-11-26T07:42:52.280Z,90.90
2018-11-26T07:44:26.287Z,90.90
2018-11-26T07:46:00.774Z,90.80
2018-11-26T07:47:34.911Z,90.90
2018-11-26T07:49:09.060Z,90.90
2018-11-26T07:50:43.085Z,90.90
2018-11-26T07:52:17.137Z,90.90
2018-11-26T07:53:51.269Z,91.00
2018-11-26T07:55:25.552Z,91.00
2018-11-26T07:56:59.541Z,91.00
2018-11-26T07:58:33.588Z,91.20
2018-11-26T08:00:10.846Z,91.00
2018-11-26T08:01:45.546Z,90.70
2018-11-26T08:03:19.543Z,90.70
2018-11-26T08:04:53.652Z,90.80
2018-11-26T08:06:27.705Z,90.70
2018-11-26T08:08:01.748Z,90.70
2018-11-26T08:09:35.696Z,90.90
2018-11-26T08:11:09.660Z,90.80
2018-11-26T08:12:44.034Z,90.80
2018-11-26T08:14:18.049Z,90.70
2018-11-26T08:15:51.996Z,90.70
2018-11-26T08:17:25.933Z,90.80
2018-11-26T08:18:59.968Z,90.70
2018-11-26T08:20:33.889Z,90.60
2018-11-26T08:22:10.853Z,90.60
2018-11-26T08:23:44.827Z,90.50
2018-11-26T08:25:20.328Z,90.60
2018-11-26T08:26:54.286Z,90.30
2018-11-26T08:28:28.227Z,90.30
2018-11-26T08:30:02.222Z,90.10
2018-11-26T08:31:36.254Z,90.30
2018-11-26T08:33:10.237Z,90.30
2018-11-26T08:34:44.192Z,90.30
2018-11-26T08:36:22.301Z,90.40
2018-11-26T08:38:01.553Z,90.70
2018-11-26T08:39:36.354Z,90.70
2018-11-26T08:41:15.249Z,90.60
2018-11-26T08:43:06.621Z,90.70
2018-11-26T08:44:41.454Z,90.70
2018-11-26T08:47:22.110Z,90.70
2018-11-26T08:49:01.196Z,90.90
2018-11-26T08:50:35.179Z,91.00
2018-11-26T08:52:09.155Z,90.90
2018-11-26T08:53:43.209Z,90.70
2018-11-26T08:55:17.172Z,90.70
2018-11-26T08:56:51.168Z,90.60
2018-11-26T08:58:25.194Z,90.40
2018-11-26T08:59:59.228Z,90.30
2018-11-26T09:01:35.773Z,90.60
2018-11-26T09:03:15.013Z,90.20
2018-11-26T09:04:53.108Z,90.30
2018-11-26T09:06:27.157Z,90.10
2018-11-26T09:08:01.145Z,90.10
2018-11-26T09:09:35.104Z,89.80
2018-11-26T09:11:09.969Z,89.80
2018-11-26T09:12:44.029Z,89.70
2018-11-26T09:14:18.009Z,89.60
2018-11-26T09:15:51.969Z,89.20
2018-11-26T09:17:25.896Z,88.60
2018-11-26T09:18:59.905Z,88.90
2018-11-26T09:20:33.887Z,87.70
2018-11-26T09:22:07.789Z,88.30
2018-11-26T09:23:41.724Z,88.50
2018-11-26T09:25:15.731Z,88.30
2018-11-26T09:26:49.861Z,88.50
2018-11-26T09:28:23.824Z,88.60
2018-11-26T09:29:57.765Z,88.90
2018-11-26T09:31:32.494Z,88.60
2018-11-26T09:33:06.196Z,88.60
2018-11-26T09:34:40.145Z,88.30
2018-11-26T09:36:14.078Z,88.50
2018-11-26T09:37:48.113Z,88.30
2018-11-26T09:39:22.089Z,88.90
2018-11-26T09:40:56.175Z,89.30
2018-11-26T09:42:30.113Z,89.60
2018-11-26T09:44:04.165Z,89.80
2018-11-26T09:45:40.505Z,90.00
2018-11-26T09:47:12.132Z,90.00
2018-11-26T09:48:46.085Z,90.40
2018-11-26T09:50:21.711Z,90.50
2018-11-26T09:51:55.683Z,90.50
2018-11-26T09:53:29.709Z,90.70
2018-11-26T09:55:03.684Z,90.80
2018-11-26T09:56:37.764Z,90.60
2018-11-26T09:58:11.987Z,90.50
2018-11-26T09:59:45.933Z,90.30
2018-11-26T10:01:19.914Z,90.60
2018-11-26T10:02:53.951Z,90.40
2018-11-26T10:04:27.893Z,90.50
2018-11-26T10:06:01.914Z,90.60
2018-11-26T10:07:35.905Z,90.20
2018-11-26T10:09:11.133Z,90.30
2018-11-26T10:10:45.073Z,90.20
2018-11-26T10:12:19.828Z,90.20
2018-11-26T10:13:53.949Z,90.10
2018-11-26T10:15:28.424Z,90.20
2018-11-26T10:17:02.350Z,89.70
2018-11-26T10:18:36.320Z,89.70
2018-11-26T10:20:11.337Z,89.80
2018-11-26T10:21:45.392Z,88.90
2018-11-26T10:23:19.332Z,88.70
2018-11-26T10:24:53.315Z,89.30
2018-11-26T10:26:27.300Z,88.80
2018-11-26T10:28:01.322Z,88.80
2018-11-26T10:29:35.289Z,89.00
2018-11-26T10:31:09.241Z,89.40
2018-11-26T10:32:43.480Z,88.90
2018-11-26T10:34:17.496Z,88.70
2018-11-26T10:35:51.483Z,88.30
2018-11-26T10:37:25.556Z,88.00
2018-11-26T10:38:59.536Z,87.60
2018-11-26T10:40:33.571Z,87.50
2018-11-26T10:42:07.482Z,87.50
2018-11-26T10:43:41.437Z,87.90
2018-11-26T10:45:16.544Z,87.40
2018-11-26T10:46:50.597Z,86.90
2018-11-26T10:48:24.528Z,87.20
2018-11-26T10:49:58.446Z,87.40
2018-11-26T10:51:32.368Z,87.10
2018-11-26T10:53:06.624Z,86.80
2018-11-26T10:54:40.600Z,86.80
2018-11-26T10:56:14.552Z,87.10
2018-11-26T10:57:48.536Z,87.00
2018-11-26T10:59:22.568Z,87.00
2018-11-26T11:00:58.503Z,86.00
2018-11-26T11:02:37.599Z,85.70
2018-11-26T11:04:11.558Z,85.50
2018-11-26T11:05:45.569Z,86.10
2018-11-26T11:07:19.536Z,86.00
2018-11-26T11:08:53.488Z,85.30
2018-11-26T11:10:28.819Z,84.90
2018-11-26T11:12:02.969Z,84.80
2018-11-26T11:13:36.926Z,84.90
2018-11-26T11:15:12.246Z,84.40
2018-11-26T11:16:46.213Z,84.60
2018-11-26T11:18:22.433Z,84.80
2018-11-26T11:19:56.401Z,84.30
2018-11-26T11:21:30.332Z,84.30
2018-11-26T11:23:04.336Z,84.50
2018-11-26T11:24:38.624Z,84.30
2018-11-26T11:26:12.688Z,84.60
2018-11-26T11:27:46.866Z,85.00
2018-11-26T11:29:20.917Z,84.80
2018-11-26T11:30:55.049Z,84.40
2018-11-26T11:32:29.091Z,84.50
2018-11-26T11:34:03.128Z,83.90
2018-11-26T11:35:37.173Z,83.80
2018-11-26T11:37:11.286Z,84.10
2018-11-26T11:38:45.310Z,84.30
2018-11-26T11:40:20.508Z,84.10
2018-11-26T11:41:54.545Z,83.70
2018-11-26T11:43:28.652Z,83.90
2018-11-26T11:45:02.634Z,84.00
2018-11-26T11:46:36.630Z,84.40
2018-11-26T11:48:10.648Z,84.40
2018-11-26T11:49:44.771Z,84.20
2018-11-26T11:51:19.125Z,83.90
2018-11-26T11:52:52.878Z,83.10
2018-11-26T11:54:26.879Z,83.10
2018-11-26T11:56:01.063Z,83.10
2018-11-26T11:57:35.121Z,82.90
2018-11-26T11:59:09.202Z,83.00
2018-11-26T12:00:45.302Z,83.40
2018-11-26T12:02:19.433Z,83.30
2018-11-26T12:03:53.511Z,83.40
2018-11-26T12:05:27.515Z,83.10
2018-11-26T12:07:01.565Z,83.10
2018-11-26T12:08:35.737Z,83.20
2018-11-26T12:10:11.287Z,83.40
2018-11-26T12:11:46.223Z,83.10
2018-11-26T12:13:20.335Z,83.30
2018-11-26T12:14:54.650Z,83.30
2018-11-26T12:16:28.803Z,83.00
2018-11-26T12:18:03.352Z,82.90
2018-11-26T12:19:37.666Z,83.20
2018-11-26T12:21:11.841Z,83.00
2018-11-26T12:22:46.270Z,82.60
2018-11-26T12:24:20.434Z,82.90
2018-11-26T12:25:54.585Z,83.40
2018-11-26T12:27:29.373Z,83.40
2018-11-26T12:29:03.467Z,83.00
2018-11-26T12:30:40.074Z,83.00
2018-11-26T12:32:14.174Z,83.40
2018-11-26T12:33:48.355Z,83.70
2018-11-26T12:35:22.623Z,83.30
2018-11-26T12:36:57.916Z,83.30
2018-11-26T12:38:31.873Z,83.30
2018-11-26T12:40:08.083Z,83.20
2018-11-26T12:41:42.271Z,83.40
2018-11-26T12:43:16.412Z,83.40
2018-11-26T12:44:51.359Z,83.40
2018-11-26T12:46:25.613Z,83.00
2018-11-26T12:47:59.805Z,82.90
2018-11-26T12:49:34.101Z,82.80
2018-11-26T12:51:08.200Z,83.40
2018-11-26T12:52:42.436Z,82.90
2018-11-26T12:54:16.642Z,83.00
2018-11-26T12:55:50.718Z,82.80
2018-11-26T12:57:25.636Z,82.70
2018-11-26T12:58:59.800Z,82.50
2018-11-26T13:00:34.134Z,82.60
2018-11-26T13:02:08.940Z,82.90
2018-11-26T13:03:42.743Z,82.80
2018-11-26T13:05:18.104Z,82.30
2018-11-26T13:06:52.235Z,82.70
2018-11-26T13:08:26.293Z,82.20
2018-11-26T13:10:00.334Z,82.10
2018-11-26T13:11:34.469Z,82.20
2018-11-26T13:13:09.993Z,81.90
2018-11-26T13:14:44.046Z,81.70
2018-11-26T13:16:18.169Z,81.90
2018-11-26T13:17:52.340Z,82.10
2018-11-26T13:19:26.524Z,82.10
2018-11-26T13:21:00.658Z,80.90
2018-11-26T13:22:34.829Z,81.00
2018-11-26T13:24:09.027Z,80.70
2018-11-26T13:25:43.288Z,81.00
2018-11-26T13:27:17.484Z,81.10
2018-11-26T13:28:51.665Z,81.10
2018-11-26T13:30:27.196Z,81.00
2018-11-26T13:32:01.334Z,80.50
2018-11-26T13:33:35.432Z,81.00
2018-11-26T13:35:11.851Z,81.30
2018-11-26T13:36:45.955Z,81.30
2018-11-26T13:38:20.209Z,80.30
2018-11-26T13:39:54.349Z,81.20
2018-11-26T13:41:28.427Z,81.00
2018-11-26T13:43:02.555Z,80.50
2018-11-26T13:44:36.707Z,80.50
2018-11-26T13:46:10.830Z,80.50
2018-11-26T13:47:44.937Z,80.70
2018-11-26T13:49:19.536Z,80.50
2018-11-26T13:50:57.603Z,80.10
2018-11-26T13:52:31.734Z,81.20
2018-11-26T13:54:05.927Z,80.40
2018-11-26T13:55:40.049Z,79.80
2018-11-26T13:57:15.605Z,80.10
2018-11-26T13:58:49.779Z,80.50
2018-11-26T14:00:23.867Z,80.80
2018-11-26T14:01:58.684Z,80.90
2018-11-26T14:05:28.822Z,81.20
2018-11-26T14:07:02.975Z,82.40
2018-11-26T14:08:37.242Z,81.60
2018-11-26T14:10:20.088Z,82.00
2018-11-26T16:06:22.810Z,80.20
2018-11-26T16:08:17.367Z,80.30
2018-11-26T16:10:00.369Z,79.90
2018-11-26T16:12:11.292Z,79.50
2018-11-26T16:15:57.022Z,79.70
2018-11-26T16:23:40.497Z,80.70
2018-11-26T16:59:52.405Z,79.60
2018-11-26T17:22:57.926Z,79.30
2018-11-26T17:24:32.519Z,77.50
2018-11-26T17:26:07.158Z,77.20
2018-11-26T17:28:08.873Z,77.30
2018-11-26T17:31:57.674Z,77.50
2018-11-26T17:58:02.311Z,77.10
2018-11-26T18:02:08.927Z,77.70
2018-11-26T18:06:08.351Z,77.70
2018-11-26T18:10:31.730Z,78.40
2018-11-26T18:18:39.691Z,79.10
2018-11-26T18:20:15.966Z,78.70
2018-11-26T18:21:56.491Z,79.20
2018-11-26T18:23:30.552Z,79.20
2018-11-26T18:25:04.686Z,78.90
2018-11-26T18:26:38.739Z,79.00
2018-11-26T18:28:14.141Z,78.90
2018-11-26T18:29:48.176Z,79.10
2018-11-26T18:31:22.278Z,79.40
2018-11-26T18:32:56.335Z,79.20
2018-11-26T18:34:30.368Z,79.30
2018-11-26T18:36:04.482Z,78.70
2018-11-26T18:37:38.475Z,78.80
2018-11-26T18:39:12.501Z,78.50
2018-11-26T18:40:48.163Z,78.30
2018-11-26T18:42:22.273Z,78.60
2018-11-26T18:43:56.239Z,78.40
2018-11-26T18:45:30.223Z,78.40
2018-11-26T18:47:04.212Z,78.40
2018-11-26T18:48:38.234Z,78.70
2018-11-26T18:50:19.514Z,78.40
2018-11-26T18:51:53.658Z,78.60
2018-11-26T18:53:27.676Z,78.90
2018-11-26T18:55:01.740Z,78.50
2018-11-26T18:56:35.773Z,78.50
2018-11-26T18:58:09.764Z,78.40
2018-11-26T18:59:44.450Z,78.60
2018-11-26T19:01:18.474Z,78.60
2018-11-26T19:04:35.526Z,78.50
2018-11-26T19:06:09.546Z,78.60
2018-11-26T19:07:43.652Z,78.90
2018-11-26T19:09:17.694Z,78.80
2018-11-26T19:10:54.857Z,79.00
2018-11-26T19:12:28.822Z,79.10
2018-11-26T19:14:07.476Z,79.50
2018-11-26T19:15:42.938Z,79.20
2018-11-26T19:17:17.773Z,79.50
2018-11-26T19:18:51.745Z,79.20
2018-11-26T19:20:25.786Z,79.20
2018-11-26T19:21:59.722Z,79.60
2018-11-26T19:23:33.758Z,79.80
2018-11-26T19:25:14.301Z,80.60
2018-11-26T19:26:48.274Z,79.90
2018-11-26T19:28:22.302Z,80.00
2018-11-26T19:29:56.346Z,80.20
2018-11-26T19:31:30.307Z,80.30
2018-11-26T19:33:04.361Z,80.10
2018-11-26T19:34:38.519Z,80.60
2018-11-26T19:36:12.557Z,80.70
2018-11-26T19:37:46.514Z,80.80
2018-11-26T19:39:20.454Z,81.00
2018-11-26T19:40:54.686Z,81.20
2018-11-26T19:42:28.767Z,81.30
2018-11-26T19:44:02.754Z,81.20
2018-11-26T19:45:37.095Z,81.30
2018-11-26T19:47:13.618Z,81.30
2018-11-26T19:48:47.665Z,81.30
2018-11-26T19:50:21.617Z,81.60
2018-11-26T19:51:55.549Z,81.70
2018-11-26T19:53:36.172Z,81.70
2018-11-26T19:55:15.730Z,82.00
2018-11-26T19:56:49.707Z,81.90
2018-11-26T19:58:23.671Z,81.90
2018-11-26T19:59:57.642Z,82.00
2018-11-26T20:01:31.695Z,82.00
2018-11-26T20:03:41.706Z,81.90
2018-11-26T20:05:23.194Z,82.10
2018-11-26T20:06:57.254Z,82.30
2018-11-26T20:08:31.353Z,82.20
2018-11-26T20:10:06.770Z,82.50
2018-11-26T20:11:40.818Z,82.60
2018-11-26T20:13:14.745Z,82.40
2018-11-26T20:14:48.801Z,82.30
2018-11-26T20:16:28.893Z,82.40
2018-11-26T20:18:03.018Z,81.80
2018-11-26T20:19:46.601Z,81.50
2018-11-26T20:21:20.649Z,81.50
2018-11-26T20:22:55.752Z,81.50
2018-11-26T20:24:29.914Z,81.40
2018-11-26T20:26:04.118Z,81.80
2018-11-26T20:27:38.399Z,81.70
2018-11-26T20:29:12.370Z,81.80
2018-11-26T20:30:46.404Z,81.90
2018-11-26T20:32:20.610Z,82.10
2018-11-26T20:33:54.773Z,82.20
2018-11-26T20:35:28.934Z,82.30
2018-11-26T20:37:02.882Z,82.40
2018-11-26T20:38:36.868Z,82.10
2018-11-26T20:40:16.132Z,81.90
2018-11-26T20:41:50.341Z,81.90
2018-11-26T20:43:24.286Z,82.00
2018-11-26T20:44:58.250Z,82.10
2018-11-26T20:46:32.306Z,82.30
2018-11-26T20:48:07.384Z,82.30
2018-11-26T20:49:41.394Z,82.40
2018-11-26T20:51:15.373Z,82.50
2018-11-26T20:52:49.378Z,82.80
2018-11-26T20:54:23.378Z,82.90
2018-11-26T20:55:57.417Z,82.80
2018-11-26T20:57:31.809Z,83.20
2018-11-26T20:59:08.093Z,83.20
2018-11-26T21:00:42.865Z,83.30
2018-11-26T21:02:18.182Z,83.20
2018-11-26T21:03:52.480Z,83.10
2018-11-26T21:05:26.507Z,83.10
2018-11-26T21:07:00.538Z,83.20
2018-11-26T21:08:34.593Z,83.20
2018-11-26T21:10:12.689Z,82.90
2018-11-26T21:11:46.646Z,83.10
2018-11-26T21:13:20.702Z,82.80
2018-11-26T21:14:54.658Z,83.00
2018-11-26T21:16:28.695Z,82.80
2018-11-26T21:18:06.694Z,82.70
2018-11-26T21:19:40.693Z,82.90
2018-11-26T21:21:14.730Z,82.80
2018-11-26T21:22:48.685Z,82.60
2018-11-26T21:24:22.690Z,82.60
2018-11-26T21:25:57.782Z,82.40
2018-11-26T21:27:31.762Z,82.20
2018-11-26T21:29:05.925Z,82.30
2018-11-26T21:30:39.950Z,83.00
2018-11-26T21:32:13.990Z,82.60
2018-11-26T21:33:47.929Z,82.80
2018-11-26T21:35:21.870Z,82.80
2018-11-26T21:36:55.900Z,82.70
2018-11-26T21:38:31.707Z,83.10
2018-11-26T21:40:07.719Z,83.20
2018-11-26T21:41:41.979Z,82.90
2018-11-26T21:43:16.377Z,82.90
2018-11-26T21:44:50.583Z,82.90
2018-11-26T21:46:24.905Z,82.90
2018-11-26T21:47:59.187Z,82.70
2018-11-26T21:49:33.527Z,82.80
2018-11-26T21:51:07.725Z,82.50
2018-11-26T21:52:41.969Z,82.60
2018-11-26T21:54:16.134Z,82.50
2018-11-26T21:55:50.483Z,82.30
2018-11-26T21:57:24.660Z,82.30
2018-11-26T21:58:58.758Z,82.40
2018-11-26T22:00:34.143Z,82.80
2018-11-26T22:03:58.427Z,83.20
2018-11-26T22:05:32.422Z,83.00
2018-11-26T22:07:06.528Z,82.90
2018-11-26T22:08:40.664Z,82.90
2018-11-26T22:10:16.059Z,82.80
2018-11-26T22:11:50.131Z,82.60
2018-11-26T22:13:24.167Z,83.20
2018-11-26T22:14:59.078Z,83.30
2018-11-26T22:16:34.130Z,83.40
2018-11-26T22:18:08.559Z,83.40
2018-11-26T22:19:42.518Z,83.50
2018-11-26T22:21:16.481Z,83.70
2018-11-26T22:22:50.514Z,83.90
2018-11-26T22:24:24.525Z,84.00
2018-11-26T22:25:58.553Z,84.00
2018-11-26T22:27:32.535Z,84.30
2018-11-26T22:29:09.510Z,84.30
2018-11-26T22:30:43.463Z,84.00
2018-11-26T22:32:17.406Z,84.00
2018-11-26T22:33:54.538Z,84.10
2018-11-26T22:35:28.563Z,84.00
2018-11-26T22:37:02.492Z,83.70
2018-11-26T22:38:36.502Z,83.80
2018-11-26T22:40:15.254Z,83.70
2018-11-26T22:43:45.081Z,83.70
2018-11-26T22:45:24.474Z,84.20
2018-11-26T22:46:58.472Z,84.20
2018-11-26T22:48:32.435Z,84.00
2018-11-26T22:50:11.610Z,84.20
2018-11-26T22:51:45.759Z,84.40
2018-11-26T22:53:25.083Z,84.20
2018-11-26T22:54:59.033Z,84.20
2018-11-26T22:56:33.063Z,84.30
2018-11-26T22:58:08.686Z,84.00
2018-11-26T22:59:42.946Z,84.60
2018-11-26T23:01:16.995Z,83.90
2018-11-26T23:02:51.445Z,84.00
2018-11-26T23:04:25.438Z,84.20
2018-11-26T23:05:59.463Z,84.30
2018-11-26T23:07:33.448Z,85.00
2018-11-26T23:09:08.725Z,84.30
2018-11-26T23:10:42.714Z,84.30
2018-11-26T23:12:16.711Z,84.20
2018-11-26T23:13:50.670Z,84.00
2018-11-26T23:15:24.700Z,83.70
2018-11-26T23:16:58.675Z,83.30
2018-11-26T23:18:32.664Z,83.10
2018-11-26T23:20:09.306Z,83.20
2018-11-26T23:21:43.317Z,83.10
2018-11-26T23:23:17.297Z,83.00
2018-11-26T23:24:51.265Z,83.00
2018-11-26T23:26:25.288Z,83.20
2018-11-26T23:27:59.242Z,82.80
2018-11-26T23:29:33.211Z,83.00
2018-11-26T23:31:07.338Z,83.30
2018-11-26T23:32:41.383Z,83.50
2018-11-26T23:34:15.342Z,83.60
2018-11-26T23:35:49.410Z,83.40
2018-11-26T23:37:23.343Z,83.60
2018-11-26T23:39:03.991Z,83.40
2018-11-26T23:40:38.010Z,82.90
2018-11-26T23:42:11.958Z,82.50
2018-11-26T23:43:45.953Z,82.40
2018-11-26T23:45:21.051Z,82.40
2018-11-26T23:46:55.075Z,82.10
2018-11-26T23:48:29.026Z,82.10
2018-11-26T23:50:03.006Z,82.10
2018-11-26T23:51:37.063Z,82.10
2018-11-26T23:53:10.988Z,82.10
2018-11-26T23:54:44.946Z,81.80
2018-11-26T23:56:18.934Z,81.50
2018-11-26T23:57:52.981Z,81.50
2018-11-26T23:59:27.030Z,81.30
